sensor_id;sensor_type;location;lat;lon;timestamp;temperature;humidity
7427;DHT22;3755;59.316;18.092;2022-08-21T00:00:50;18.50;99.90
7427;DHT22;3755;59.316;18.092;2022-08-21T00:03:17;18.50;99.90
7427;DHT22;3755;59.316;18.092;2022-08-21T00:05:47;18.40;99.90
7427;DHT22;3755;59.316;18.092;2022-08-21T00:08:15;18.40;99.90
7427;DHT22;3755;59.316;18.092;2022-08-21T00:10:44;18.30;99.90
7427;DHT22;3755;59.316;18.092;2022-08-21T00:13:12;18.30;99.90
7427;DHT22;3755;59.316;18.092;2022-08-21T00:15:40;18.30;99.90
7427;DHT22;3755;59.316;18.092;2022-08-21T00:18:08;18.30;99.90
7427;DHT22;3755;59.316;18.092;2022-08-21T00:20:37;18.30;99.90
7427;DHT22;3755;59.316;18.092;2022-08-21T00:23:04;18.30;99.90
7427;DHT22;3755;59.316;18.092;2022-08-21T00:25:32;18.30;99.90
7427;DHT22;3755;59.316;18.092;2022-08-21T00:28:01;18.20;99.90
7427;DHT22;3755;59.316;18.092;2022-08-21T00:30:29;18.20;99.90
7427;DHT22;3755;59.316;18.092;2022-08-21T00:32:57;18.20;99.90
7427;DHT22;3755;59.316;18.092;2022-08-21T00:35:29;18.20;99.90
7427;DHT22;3755;59.316;18.092;2022-08-21T00:37:56;18.20;99.90
7427;DHT22;3755;59.316;18.092;2022-08-21T00:40:33;18.20;99.90
7427;DHT22;3755;59.316;18.092;2022-08-21T00:43:03;18.20;99.90
7427;DHT22;3755;59.316;18.092;2022-08-21T00:45:30;18.20;99.90
7427;DHT22;3755;59.316;18.092;2022-08-21T00:47:58;18.10;99.90
7427;DHT22;3755;59.316;18.092;2022-08-21T00:50:28;18.10;99.90
7427;DHT22;3755;59.316;18.092;2022-08-21T00:52:57;18.10;99.90
7427;DHT22;3755;59.316;18.092;2022-08-21T00:55:25;18.10;99.90
7427;DHT22;3755;59.316;18.092;2022-08-21T00:57:55;18.10;99.90
7427;DHT22;3755;59.316;18.092;2022-08-21T01:00:27;18.10;99.90
7427;DHT22;3755;59.316;18.092;2022-08-21T01:02:55;18.10;99.90
7427;DHT22;3755;59.316;18.092;2022-08-21T01:05:22;18.10;99.90
7427;DHT22;3755;59.316;18.092;2022-08-21T01:07:49;18.20;99.90
7427;DHT22;3755;59.316;18.092;2022-08-21T01:10:16;18.10;99.90
7427;DHT22;3755;59.316;18.092;2022-08-21T01:12:44;18.10;99.90
7427;DHT22;3755;59.316;18.092;2022-08-21T01:15:13;18.00;99.90
7427;DHT22;3755;59.316;18.092;2022-08-21T01:17:43;18.00;99.90
7427;DHT22;3755;59.316;18.092;2022-08-21T01:20:11;17.90;99.90
7427;DHT22;3755;59.316;18.092;2022-08-21T01:22:40;17.90;99.90
7427;DHT22;3755;59.316;18.092;2022-08-21T01:25:09;18.00;99.90
7427;DHT22;3755;59.316;18.092;2022-08-21T01:27:36;17.90;99.90
7427;DHT22;3755;59.316;18.092;2022-08-21T01:30:10;18.00;99.90
7427;DHT22;3755;59.316;18.092;2022-08-21T01:32:38;18.00;99.90
7427;DHT22;3755;59.316;18.092;2022-08-21T01:35:06;18.00;99.90
7427;DHT22;3755;59.316;18.092;2022-08-21T01:37:34;17.90;99.90
7427;DHT22;3755;59.316;18.092;2022-08-21T01:40:04;17.90;99.90
7427;DHT22;3755;59.316;18.092;2022-08-21T01:42:31;18.00;99.90
7427;DHT22;3755;59.316;18.092;2022-08-21T01:44:58;18.00;99.90
7427;DHT22;3755;59.316;18.092;2022-08-21T01:47:25;17.90;99.90
7427;DHT22;3755;59.316;18.092;2022-08-21T01:49:53;17.90;99.90
7427;DHT22;3755;59.316;18.092;2022-08-21T01:52:20;18.00;99.90
7427;DHT22;3755;59.316;18.092;2022-08-21T01:54:50;18.00;99.90
7427;DHT22;3755;59.316;18.092;2022-08-21T01:57:18;17.90;99.90
7427;DHT22;3755;59.316;18.092;2022-08-21T01:59:45;18.00;99.90
7427;DHT22;3755;59.316;18.092;2022-08-21T02:02:12;17.90;99.90
7427;DHT22;3755;59.316;18.092;2022-08-21T02:04:40;18.00;99.90
7427;DHT22;3755;59.316;18.092;2022-08-21T02:07:07;17.90;99.90
7427;DHT22;3755;59.316;18.092;2022-08-21T02:09:35;17.90;99.90
7427;DHT22;3755;59.316;18.092;2022-08-21T02:12:02;17.90;99.90
7427;DHT22;3755;59.316;18.092;2022-08-21T02:14:31;17.90;99.90
7427;DHT22;3755;59.316;18.092;2022-08-21T02:16:58;17.80;99.90
7427;DHT22;3755;59.316;18.092;2022-08-21T02:19:25;17.80;99.90
7427;DHT22;3755;59.316;18.092;2022-08-21T02:21:52;17.80;99.90
7427;DHT22;3755;59.316;18.092;2022-08-21T02:24:19;17.80;99.90
7427;DHT22;3755;59.316;18.092;2022-08-21T02:26:46;17.80;99.90
7427;DHT22;3755;59.316;18.092;2022-08-21T02:29:13;17.80;99.90
7427;DHT22;3755;59.316;18.092;2022-08-21T02:31:41;17.70;99.90
7427;DHT22;3755;59.316;18.092;2022-08-21T02:34:08;17.80;99.90
7427;DHT22;3755;59.316;18.092;2022-08-21T02:36:35;17.70;99.90
7427;DHT22;3755;59.316;18.092;2022-08-21T02:39:02;17.70;99.90
7427;DHT22;3755;59.316;18.092;2022-08-21T02:41:29;17.70;99.90
7427;DHT22;3755;59.316;18.092;2022-08-21T02:43:57;17.70;99.90
7427;DHT22;3755;59.316;18.092;2022-08-21T02:46:24;17.60;99.90
7427;DHT22;3755;59.316;18.092;2022-08-21T02:48:52;17.60;99.90
7427;DHT22;3755;59.316;18.092;2022-08-21T02:51:20;17.50;99.90
7427;DHT22;3755;59.316;18.092;2022-08-21T02:53:49;17.50;99.90
7427;DHT22;3755;59.316;18.092;2022-08-21T02:56:18;17.50;99.90
7427;DHT22;3755;59.316;18.092;2022-08-21T02:58:49;17.50;99.90
7427;DHT22;3755;59.316;18.092;2022-08-21T03:01:18;17.60;99.90
7427;DHT22;3755;59.316;18.092;2022-08-21T03:03:47;17.50;99.90
7427;DHT22;3755;59.316;18.092;2022-08-21T03:06:19;17.50;99.90
7427;DHT22;3755;59.316;18.092;2022-08-21T03:08:48;17.50;99.90
7427;DHT22;3755;59.316;18.092;2022-08-21T03:11:18;17.50;99.90
7427;DHT22;3755;59.316;18.092;2022-08-21T03:13:46;17.40;99.90
7427;DHT22;3755;59.316;18.092;2022-08-21T03:16:13;17.40;99.90
7427;DHT22;3755;59.316;18.092;2022-08-21T03:18:40;17.40;99.90
7427;DHT22;3755;59.316;18.092;2022-08-21T03:21:07;17.40;99.90
7427;DHT22;3755;59.316;18.092;2022-08-21T03:23:37;17.40;99.90
7427;DHT22;3755;59.316;18.092;2022-08-21T03:26:05;17.40;99.90
7427;DHT22;3755;59.316;18.092;2022-08-21T03:28:32;17.40;99.90
7427;DHT22;3755;59.316;18.092;2022-08-21T03:30:59;17.40;99.90
7427;DHT22;3755;59.316;18.092;2022-08-21T03:33:26;17.40;99.90
7427;DHT22;3755;59.316;18.092;2022-08-21T03:35:58;17.40;99.90
7427;DHT22;3755;59.316;18.092;2022-08-21T03:38:28;17.40;99.90
7427;DHT22;3755;59.316;18.092;2022-08-21T03:40:58;17.40;99.90
7427;DHT22;3755;59.316;18.092;2022-08-21T03:43:25;17.30;99.90
7427;DHT22;3755;59.316;18.092;2022-08-21T03:45:53;17.40;99.90
7427;DHT22;3755;59.316;18.092;2022-08-21T03:48:20;17.30;99.90
7427;DHT22;3755;59.316;18.092;2022-08-21T03:50:47;17.30;99.90
7427;DHT22;3755;59.316;18.092;2022-08-21T03:53:17;17.30;99.90
7427;DHT22;3755;59.316;18.092;2022-08-21T03:55:45;17.40;99.90
7427;DHT22;3755;59.316;18.092;2022-08-21T03:58:14;17.40;99.90
7427;DHT22;3755;59.316;18.092;2022-08-21T04:00:41;17.50;99.90
7427;DHT22;3755;59.316;18.092;2022-08-21T04:03:08;17.50;99.90
7427;DHT22;3755;59.316;18.092;2022-08-21T04:05:35;17.50;99.90
7427;DHT22;3755;59.316;18.092;2022-08-21T04:08:05;17.50;99.90
7427;DHT22;3755;59.316;18.092;2022-08-21T04:10:35;17.50;99.90
7427;DHT22;3755;59.316;18.092;2022-08-21T04:13:02;17.50;99.90
7427;DHT22;3755;59.316;18.092;2022-08-21T04:15:31;17.50;99.90
7427;DHT22;3755;59.316;18.092;2022-08-21T04:17:58;17.50;99.90
7427;DHT22;3755;59.316;18.092;2022-08-21T04:20:26;17.60;99.90
7427;DHT22;3755;59.316;18.092;2022-08-21T04:22:53;17.50;99.90
7427;DHT22;3755;59.316;18.092;2022-08-21T04:25:22;17.50;99.90
7427;DHT22;3755;59.316;18.092;2022-08-21T04:27:51;17.50;99.90
7427;DHT22;3755;59.316;18.092;2022-08-21T04:30:18;17.50;99.90
7427;DHT22;3755;59.316;18.092;2022-08-21T04:32:48;17.50;99.90
7427;DHT22;3755;59.316;18.092;2022-08-21T04:35:19;17.40;99.90
7427;DHT22;3755;59.316;18.092;2022-08-21T04:37:46;17.50;99.90
7427;DHT22;3755;59.316;18.092;2022-08-21T04:40:16;17.40;99.90
7427;DHT22;3755;59.316;18.092;2022-08-21T04:42:45;17.40;99.90
7427;DHT22;3755;59.316;18.092;2022-08-21T04:45:20;17.40;99.90
7427;DHT22;3755;59.316;18.092;2022-08-21T04:47:51;17.50;99.90
7427;DHT22;3755;59.316;18.092;2022-08-21T04:50:19;17.50;99.90
7427;DHT22;3755;59.316;18.092;2022-08-21T04:52:47;17.50;99.90
7427;DHT22;3755;59.316;18.092;2022-08-21T04:55:15;17.40;99.90
7427;DHT22;3755;59.316;18.092;2022-08-21T04:57:43;17.50;99.90
7427;DHT22;3755;59.316;18.092;2022-08-21T05:00:12;17.40;99.90
7427;DHT22;3755;59.316;18.092;2022-08-21T05:02:40;17.40;99.90
7427;DHT22;3755;59.316;18.092;2022-08-21T05:05:09;17.40;99.90
7427;DHT22;3755;59.316;18.092;2022-08-21T05:07:37;17.30;99.90
7427;DHT22;3755;59.316;18.092;2022-08-21T05:10:05;17.30;99.90
7427;DHT22;3755;59.316;18.092;2022-08-21T05:12:34;17.30;99.90
7427;DHT22;3755;59.316;18.092;2022-08-21T05:15:02;17.40;99.90
7427;DHT22;3755;59.316;18.092;2022-08-21T05:17:29;17.40;99.90
7427;DHT22;3755;59.316;18.092;2022-08-21T05:19:56;17.30;99.90
7427;DHT22;3755;59.316;18.092;2022-08-21T05:22:25;17.30;99.90
7427;DHT22;3755;59.316;18.092;2022-08-21T05:24:53;17.30;99.90
7427;DHT22;3755;59.316;18.092;2022-08-21T05:27:20;17.40;99.90
7427;DHT22;3755;59.316;18.092;2022-08-21T05:29:48;17.40;99.90
7427;DHT22;3755;59.316;18.092;2022-08-21T05:32:16;17.40;99.90
7427;DHT22;3755;59.316;18.092;2022-08-21T05:34:43;17.40;99.90
7427;DHT22;3755;59.316;18.092;2022-08-21T05:37:11;17.40;99.90
7427;DHT22;3755;59.316;18.092;2022-08-21T05:39:40;17.40;99.90
7427;DHT22;3755;59.316;18.092;2022-08-21T05:42:08;17.30;99.90
7427;DHT22;3755;59.316;18.092;2022-08-21T05:44:35;17.40;99.90
7427;DHT22;3755;59.316;18.092;2022-08-21T05:47:04;17.40;99.90
7427;DHT22;3755;59.316;18.092;2022-08-21T05:49:31;17.40;99.90
7427;DHT22;3755;59.316;18.092;2022-08-21T05:51:58;17.40;99.90
7427;DHT22;3755;59.316;18.092;2022-08-21T05:54:25;17.50;99.90
7427;DHT22;3755;59.316;18.092;2022-08-21T05:56:54;17.50;99.90
7427;DHT22;3755;59.316;18.092;2022-08-21T05:59:21;17.50;99.90
7427;DHT22;3755;59.316;18.092;2022-08-21T06:01:48;17.50;99.90
7427;DHT22;3755;59.316;18.092;2022-08-21T06:04:18;17.50;99.90
7427;DHT22;3755;59.316;18.092;2022-08-21T06:06:45;17.50;99.90
7427;DHT22;3755;59.316;18.092;2022-08-21T06:09:13;17.50;99.90
7427;DHT22;3755;59.316;18.092;2022-08-21T06:11:40;17.40;99.90
7427;DHT22;3755;59.316;18.092;2022-08-21T06:14:08;17.50;99.90
7427;DHT22;3755;59.316;18.092;2022-08-21T06:16:35;17.40;99.90
7427;DHT22;3755;59.316;18.092;2022-08-21T06:19:02;17.50;99.90
7427;DHT22;3755;59.316;18.092;2022-08-21T06:21:29;17.50;99.90
7427;DHT22;3755;59.316;18.092;2022-08-21T06:23:58;17.50;99.90
7427;DHT22;3755;59.316;18.092;2022-08-21T06:26:26;17.60;99.90
7427;DHT22;3755;59.316;18.092;2022-08-21T06:29:01;17.60;99.90
7427;DHT22;3755;59.316;18.092;2022-08-21T06:31:29;17.80;99.90
7427;DHT22;3755;59.316;18.092;2022-08-21T06:33:58;17.80;99.90
7427;DHT22;3755;59.316;18.092;2022-08-21T06:36:25;17.70;99.90
7427;DHT22;3755;59.316;18.092;2022-08-21T06:38:52;17.70;99.90
7427;DHT22;3755;59.316;18.092;2022-08-21T06:41:19;17.60;99.90
7427;DHT22;3755;59.316;18.092;2022-08-21T06:43:47;17.70;99.90
7427;DHT22;3755;59.316;18.092;2022-08-21T06:46:16;17.80;99.90
7427;DHT22;3755;59.316;18.092;2022-08-21T06:48:44;17.80;99.90
7427;DHT22;3755;59.316;18.092;2022-08-21T06:51:12;17.90;99.90
7427;DHT22;3755;59.316;18.092;2022-08-21T06:53:38;17.80;99.90
7427;DHT22;3755;59.316;18.092;2022-08-21T06:56:05;17.90;99.90
7427;DHT22;3755;59.316;18.092;2022-08-21T06:58:33;17.90;99.90
7427;DHT22;3755;59.316;18.092;2022-08-21T07:01:03;18.00;99.90
7427;DHT22;3755;59.316;18.092;2022-08-21T07:03:33;18.00;99.90
7427;DHT22;3755;59.316;18.092;2022-08-21T07:06:01;17.90;99.90
7427;DHT22;3755;59.316;18.092;2022-08-21T07:08:29;17.80;99.90
7427;DHT22;3755;59.316;18.092;2022-08-21T07:10:58;17.80;99.90
7427;DHT22;3755;59.316;18.092;2022-08-21T07:13:26;17.80;99.90
7427;DHT22;3755;59.316;18.092;2022-08-21T07:15:54;17.80;99.90
7427;DHT22;3755;59.316;18.092;2022-08-21T07:18:21;17.80;99.90
7427;DHT22;3755;59.316;18.092;2022-08-21T07:20:49;17.80;99.90
7427;DHT22;3755;59.316;18.092;2022-08-21T07:23:22;17.90;99.90
7427;DHT22;3755;59.316;18.092;2022-08-21T07:25:49;17.80;99.90
7427;DHT22;3755;59.316;18.092;2022-08-21T07:28:17;17.90;99.90
7427;DHT22;3755;59.316;18.092;2022-08-21T07:30:44;17.90;99.90
7427;DHT22;3755;59.316;18.092;2022-08-21T07:33:11;17.90;99.90
7427;DHT22;3755;59.316;18.092;2022-08-21T07:35:39;17.90;99.90
7427;DHT22;3755;59.316;18.092;2022-08-21T07:38:06;18.00;99.90
7427;DHT22;3755;59.316;18.092;2022-08-21T07:40:34;18.00;99.90
7427;DHT22;3755;59.316;18.092;2022-08-21T07:43:03;18.10;99.90
7427;DHT22;3755;59.316;18.092;2022-08-21T07:45:32;18.20;99.90
7427;DHT22;3755;59.316;18.092;2022-08-21T07:48:00;18.20;99.90
7427;DHT22;3755;59.316;18.092;2022-08-21T07:50:27;18.30;99.90
7427;DHT22;3755;59.316;18.092;2022-08-21T07:52:55;18.30;99.90
7427;DHT22;3755;59.316;18.092;2022-08-21T07:55:25;18.20;99.90
7427;DHT22;3755;59.316;18.092;2022-08-21T07:57:54;18.10;99.90
7427;DHT22;3755;59.316;18.092;2022-08-21T08:00:23;18.10;99.90
7427;DHT22;3755;59.316;18.092;2022-08-21T08:02:52;18.20;99.90
7427;DHT22;3755;59.316;18.092;2022-08-21T08:05:23;18.30;99.90
7427;DHT22;3755;59.316;18.092;2022-08-21T08:08:05;18.50;99.90
7427;DHT22;3755;59.316;18.092;2022-08-21T08:10:32;18.80;99.90
7427;DHT22;3755;59.316;18.092;2022-08-21T08:13:02;18.80;99.90
7427;DHT22;3755;59.316;18.092;2022-08-21T08:15:29;19.00;99.90
7427;DHT22;3755;59.316;18.092;2022-08-21T08:17:56;18.80;99.90
7427;DHT22;3755;59.316;18.092;2022-08-21T08:20:25;18.90;99.90
7427;DHT22;3755;59.316;18.092;2022-08-21T08:22:54;19.10;99.90
7427;DHT22;3755;59.316;18.092;2022-08-21T08:25:23;19.30;99.90
7427;DHT22;3755;59.316;18.092;2022-08-21T08:27:51;19.40;99.90
7427;DHT22;3755;59.316;18.092;2022-08-21T08:30:22;19.40;99.90
7427;DHT22;3755;59.316;18.092;2022-08-21T08:32:49;19.50;99.90
7427;DHT22;3755;59.316;18.092;2022-08-21T08:35:17;19.60;99.90
7427;DHT22;3755;59.316;18.092;2022-08-21T08:37:44;19.60;99.90
7427;DHT22;3755;59.316;18.092;2022-08-21T08:40:18;19.70;99.90
7427;DHT22;3755;59.316;18.092;2022-08-21T08:42:48;19.80;99.90
7427;DHT22;3755;59.316;18.092;2022-08-21T08:45:22;19.80;99.90
7427;DHT22;3755;59.316;18.092;2022-08-21T08:47:55;19.80;99.90
7427;DHT22;3755;59.316;18.092;2022-08-21T08:50:32;19.70;99.90
7427;DHT22;3755;59.316;18.092;2022-08-21T08:53:04;19.60;99.90
7427;DHT22;3755;59.316;18.092;2022-08-21T08:55:36;19.70;99.90
7427;DHT22;3755;59.316;18.092;2022-08-21T08:58:22;19.50;99.90
7427;DHT22;3755;59.316;18.092;2022-08-21T09:00:52;19.70;99.90
7427;DHT22;3755;59.316;18.092;2022-08-21T09:03:21;20.00;99.90
7427;DHT22;3755;59.316;18.092;2022-08-21T09:05:57;20.30;99.90
7427;DHT22;3755;59.316;18.092;2022-08-21T09:08:41;20.30;99.90
7427;DHT22;3755;59.316;18.092;2022-08-21T09:11:15;20.30;99.90
7427;DHT22;3755;59.316;18.092;2022-08-21T09:13:51;20.50;99.90
7427;DHT22;3755;59.316;18.092;2022-08-21T09:16:30;20.70;99.90
7427;DHT22;3755;59.316;18.092;2022-08-21T09:19:06;21.00;99.90
7427;DHT22;3755;59.316;18.092;2022-08-21T09:21:43;21.20;99.90
7427;DHT22;3755;59.316;18.092;2022-08-21T09:24:25;21.00;99.90
7427;DHT22;3755;59.316;18.092;2022-08-21T09:27:02;21.10;99.90
7427;DHT22;3755;59.316;18.092;2022-08-21T09:29:34;21.00;99.90
7427;DHT22;3755;59.316;18.092;2022-08-21T09:32:14;21.00;99.90
7427;DHT22;3755;59.316;18.092;2022-08-21T09:34:55;20.80;99.90
7427;DHT22;3755;59.316;18.092;2022-08-21T09:37:24;20.90;99.90
7427;DHT22;3755;59.316;18.092;2022-08-21T09:39:57;20.90;99.90
7427;DHT22;3755;59.316;18.092;2022-08-21T09:42:26;21.00;99.90
7427;DHT22;3755;59.316;18.092;2022-08-21T09:45:10;20.90;99.90
7427;DHT22;3755;59.316;18.092;2022-08-21T09:47:42;20.60;99.90
7427;DHT22;3755;59.316;18.092;2022-08-21T09:50:14;20.70;99.90
7427;DHT22;3755;59.316;18.092;2022-08-21T09:52:53;20.60;99.90
7427;DHT22;3755;59.316;18.092;2022-08-21T09:55:37;20.60;99.90
7427;DHT22;3755;59.316;18.092;2022-08-21T09:58:31;20.60;99.90
7427;DHT22;3755;59.316;18.092;2022-08-21T10:01:01;20.70;99.90
7427;DHT22;3755;59.316;18.092;2022-08-21T10:03:30;20.70;99.90
7427;DHT22;3755;59.316;18.092;2022-08-21T10:05:59;20.70;99.90
7427;DHT22;3755;59.316;18.092;2022-08-21T10:08:28;20.70;99.90
7427;DHT22;3755;59.316;18.092;2022-08-21T10:11:02;20.80;99.90
7427;DHT22;3755;59.316;18.092;2022-08-21T10:13:41;21.00;99.90
7427;DHT22;3755;59.316;18.092;2022-08-21T10:16:25;20.90;99.90
7427;DHT22;3755;59.316;18.092;2022-08-21T10:19:05;20.80;99.90
7427;DHT22;3755;59.316;18.092;2022-08-21T10:21:42;20.80;99.90
7427;DHT22;3755;59.316;18.092;2022-08-21T10:24:19;20.90;99.90
7427;DHT22;3755;59.316;18.092;2022-08-21T10:26:56;20.90;99.90
7427;DHT22;3755;59.316;18.092;2022-08-21T10:29:41;20.90;99.90
7427;DHT22;3755;59.316;18.092;2022-08-21T10:32:17;20.90;99.90
7427;DHT22;3755;59.316;18.092;2022-08-21T10:34:54;20.90;99.90
7427;DHT22;3755;59.316;18.092;2022-08-21T10:37:35;20.80;99.90
7427;DHT22;3755;59.316;18.092;2022-08-21T10:40:12;20.90;99.90
7427;DHT22;3755;59.316;18.092;2022-08-21T10:42:52;21.00;99.90
7427;DHT22;3755;59.316;18.092;2022-08-21T10:45:32;21.00;99.90
7427;DHT22;3755;59.316;18.092;2022-08-21T10:48:03;21.00;99.90
7427;DHT22;3755;59.316;18.092;2022-08-21T10:50:39;20.90;99.90
7427;DHT22;3755;59.316;18.092;2022-08-21T10:53:23;20.80;99.90
7427;DHT22;3755;59.316;18.092;2022-08-21T10:55:57;20.90;99.90
7427;DHT22;3755;59.316;18.092;2022-08-21T10:58:29;21.10;99.90
7427;DHT22;3755;59.316;18.092;2022-08-21T11:01:00;21.20;99.90
7427;DHT22;3755;59.316;18.092;2022-08-21T11:03:35;21.10;99.90
7427;DHT22;3755;59.316;18.092;2022-08-21T11:06:12;21.10;99.90
7427;DHT22;3755;59.316;18.092;2022-08-21T11:08:42;21.10;99.90
7427;DHT22;3755;59.316;18.092;2022-08-21T11:11:14;20.90;99.90
7427;DHT22;3755;59.316;18.092;2022-08-21T11:13:47;20.80;99.90
7427;DHT22;3755;59.316;18.092;2022-08-21T11:16:22;20.90;99.90
7427;DHT22;3755;59.316;18.092;2022-08-21T11:18:55;21.00;99.90
7427;DHT22;3755;59.316;18.092;2022-08-21T11:21:34;21.20;99.90
7427;DHT22;3755;59.316;18.092;2022-08-21T11:24:15;21.30;99.90
7427;DHT22;3755;59.316;18.092;2022-08-21T11:26:48;21.50;99.90
7427;DHT22;3755;59.316;18.092;2022-08-21T11:29:22;21.80;99.90
7427;DHT22;3755;59.316;18.092;2022-08-21T11:32:07;22.10;99.90
7427;DHT22;3755;59.316;18.092;2022-08-21T11:34:48;22.20;99.90
7427;DHT22;3755;59.316;18.092;2022-08-21T11:37:45;21.90;99.90
7427;DHT22;3755;59.316;18.092;2022-08-21T11:40:30;21.90;99.90
7427;DHT22;3755;59.316;18.092;2022-08-21T11:43:06;21.70;99.90
7427;DHT22;3755;59.316;18.092;2022-08-21T11:45:42;21.70;99.90
7427;DHT22;3755;59.316;18.092;2022-08-21T11:48:21;21.60;99.90
7427;DHT22;3755;59.316;18.092;2022-08-21T11:50:54;21.60;99.90
7427;DHT22;3755;59.316;18.092;2022-08-21T11:53:28;21.80;99.90
7427;DHT22;3755;59.316;18.092;2022-08-21T11:56:03;21.70;99.90
7427;DHT22;3755;59.316;18.092;2022-08-21T11:58:35;21.70;99.90
7427;DHT22;3755;59.316;18.092;2022-08-21T12:01:08;21.50;99.90
7427;DHT22;3755;59.316;18.092;2022-08-21T12:03:40;21.60;99.90
7427;DHT22;3755;59.316;18.092;2022-08-21T12:06:10;21.40;99.90
7427;DHT22;3755;59.316;18.092;2022-08-21T12:08:41;21.40;99.90
7427;DHT22;3755;59.316;18.092;2022-08-21T12:11:10;21.50;99.90
7427;DHT22;3755;59.316;18.092;2022-08-21T12:13:57;21.50;99.90
7427;DHT22;3755;59.316;18.092;2022-08-21T12:16:31;21.40;99.90
7427;DHT22;3755;59.316;18.092;2022-08-21T12:19:07;21.50;99.90
7427;DHT22;3755;59.316;18.092;2022-08-21T12:21:49;21.60;99.90
7427;DHT22;3755;59.316;18.092;2022-08-21T12:24:31;21.70;99.90
7427;DHT22;3755;59.316;18.092;2022-08-21T12:27:12;21.80;99.90
7427;DHT22;3755;59.316;18.092;2022-08-21T12:29:45;22.20;99.90
7427;DHT22;3755;59.316;18.092;2022-08-21T12:32:24;22.20;99.90
7427;DHT22;3755;59.316;18.092;2022-08-21T12:34:55;22.20;99.90
7427;DHT22;3755;59.316;18.092;2022-08-21T12:37:30;22.10;99.90
7427;DHT22;3755;59.316;18.092;2022-08-21T12:40:10;22.10;99.90
7427;DHT22;3755;59.316;18.092;2022-08-21T12:42:40;22.20;99.90
7427;DHT22;3755;59.316;18.092;2022-08-21T12:45:17;22.40;99.90
7427;DHT22;3755;59.316;18.092;2022-08-21T12:47:48;22.50;99.90
7427;DHT22;3755;59.316;18.092;2022-08-21T12:50:29;22.40;99.90
7427;DHT22;3755;59.316;18.092;2022-08-21T12:53:04;22.30;99.90
7427;DHT22;3755;59.316;18.092;2022-08-21T12:55:42;22.50;98.20
7427;DHT22;3755;59.316;18.092;2022-08-21T12:58:18;22.50;97.60
7427;DHT22;3755;59.316;18.092;2022-08-21T13:00:50;22.40;95.70
7427;DHT22;3755;59.316;18.092;2022-08-21T13:03:19;22.20;95.70
7427;DHT22;3755;59.316;18.092;2022-08-21T13:05:50;22.10;96.20
7427;DHT22;3755;59.316;18.092;2022-08-21T13:08:20;22.10;96.10
7427;DHT22;3755;59.316;18.092;2022-08-21T13:10:58;22.40;94.80
7427;DHT22;3755;59.316;18.092;2022-08-21T13:13:27;22.30;94.40
7427;DHT22;3755;59.316;18.092;2022-08-21T13:16:00;22.00;94.70
7427;DHT22;3755;59.316;18.092;2022-08-21T13:18:31;22.10;94.70
7427;DHT22;3755;59.316;18.092;2022-08-21T13:21:09;22.00;94.60
7427;DHT22;3755;59.316;18.092;2022-08-21T13:23:37;22.00;95.00
7427;DHT22;3755;59.316;18.092;2022-08-21T13:26:14;22.00;95.20
7427;DHT22;3755;59.316;18.092;2022-08-21T13:28:42;21.70;95.70
7427;DHT22;3755;59.316;18.092;2022-08-21T13:31:18;21.60;95.50
7427;DHT22;3755;59.316;18.092;2022-08-21T13:33:48;21.80;95.30
7427;DHT22;3755;59.316;18.092;2022-08-21T13:36:20;21.90;94.80
7427;DHT22;3755;59.316;18.092;2022-08-21T13:38:51;21.90;94.40
7427;DHT22;3755;59.316;18.092;2022-08-21T14:04:21;21.90;94.00
7427;DHT22;3755;59.316;18.092;2022-08-21T14:06:50;22.20;94.10
7427;DHT22;3755;59.316;18.092;2022-08-21T14:09:24;22.30;93.80
7427;DHT22;3755;59.316;18.092;2022-08-21T14:11:56;22.30;93.60
7427;DHT22;3755;59.316;18.092;2022-08-21T14:14:29;22.30;93.60
7427;DHT22;3755;59.316;18.092;2022-08-21T14:16:59;22.20;93.50
7427;DHT22;3755;59.316;18.092;2022-08-21T14:19:37;22.30;93.60
7427;DHT22;3755;59.316;18.092;2022-08-21T14:22:39;22.40;93.80
7427;DHT22;3755;59.316;18.092;2022-08-21T14:25:11;22.50;93.60
7427;DHT22;3755;59.316;18.092;2022-08-21T14:27:43;22.40;93.80
7427;DHT22;3755;59.316;18.092;2022-08-21T14:30:17;22.30;93.70
7427;DHT22;3755;59.316;18.092;2022-08-21T14:32:46;22.30;93.80
7427;DHT22;3755;59.316;18.092;2022-08-21T14:35:15;22.50;93.90
7427;DHT22;3755;59.316;18.092;2022-08-21T14:37:44;22.60;94.20
7427;DHT22;3755;59.316;18.092;2022-08-21T14:40:12;22.50;93.80
7427;DHT22;3755;59.316;18.092;2022-08-21T14:42:40;22.40;94.20
7427;DHT22;3755;59.316;18.092;2022-08-21T14:45:14;22.30;94.30
7427;DHT22;3755;59.316;18.092;2022-08-21T14:47:42;22.30;94.30
7427;DHT22;3755;59.316;18.092;2022-08-21T14:50:11;22.20;94.40
7427;DHT22;3755;59.316;18.092;2022-08-21T14:52:41;22.10;94.60
7427;DHT22;3755;59.316;18.092;2022-08-21T14:55:13;22.20;94.50
7427;DHT22;3755;59.316;18.092;2022-08-21T14:57:41;22.30;94.70
7427;DHT22;3755;59.316;18.092;2022-08-21T15:00:11;22.30;94.70
7427;DHT22;3755;59.316;18.092;2022-08-21T15:02:38;22.30;94.90
7427;DHT22;3755;59.316;18.092;2022-08-21T15:05:08;22.30;94.60
7427;DHT22;3755;59.316;18.092;2022-08-21T15:07:36;22.50;94.60
7427;DHT22;3755;59.316;18.092;2022-08-21T15:10:06;22.50;94.60
7427;DHT22;3755;59.316;18.092;2022-08-21T15:12:34;22.60;94.60
7427;DHT22;3755;59.316;18.092;2022-08-21T15:15:01;22.60;94.70
7427;DHT22;3755;59.316;18.092;2022-08-21T15:17:29;22.50;94.60
7427;DHT22;3755;59.316;18.092;2022-08-21T15:19:56;22.40;94.90
7427;DHT22;3755;59.316;18.092;2022-08-21T15:22:24;22.50;94.90
7427;DHT22;3755;59.316;18.092;2022-08-21T15:24:52;22.60;94.90
7427;DHT22;3755;59.316;18.092;2022-08-21T15:27:21;22.60;94.60
7427;DHT22;3755;59.316;18.092;2022-08-21T15:29:48;22.60;94.80
7427;DHT22;3755;59.316;18.092;2022-08-21T15:32:21;22.50;95.00
7427;DHT22;3755;59.316;18.092;2022-08-21T15:34:49;22.50;94.70
7427;DHT22;3755;59.316;18.092;2022-08-21T15:37:16;22.50;94.70
7427;DHT22;3755;59.316;18.092;2022-08-21T15:39:43;22.50;95.20
7427;DHT22;3755;59.316;18.092;2022-08-21T15:42:11;22.60;95.30
7427;DHT22;3755;59.316;18.092;2022-08-21T15:44:43;22.80;95.00
7427;DHT22;3755;59.316;18.092;2022-08-21T15:47:13;22.80;94.60
7427;DHT22;3755;59.316;18.092;2022-08-21T15:49:42;22.70;94.50
7427;DHT22;3755;59.316;18.092;2022-08-21T15:52:11;22.70;94.60
7427;DHT22;3755;59.316;18.092;2022-08-21T15:54:38;22.50;94.70
7427;DHT22;3755;59.316;18.092;2022-08-21T15:57:13;22.60;94.80
7427;DHT22;3755;59.316;18.092;2022-08-21T15:59:44;22.50;94.50
7427;DHT22;3755;59.316;18.092;2022-08-21T16:02:14;22.50;94.70
7427;DHT22;3755;59.316;18.092;2022-08-21T16:04:42;22.50;94.20
7427;DHT22;3755;59.316;18.092;2022-08-21T16:07:09;22.50;94.10
7427;DHT22;3755;59.316;18.092;2022-08-21T16:09:37;22.50;94.10
7427;DHT22;3755;59.316;18.092;2022-08-21T16:12:05;22.50;94.10
7427;DHT22;3755;59.316;18.092;2022-08-21T16:14:33;22.80;93.80
7427;DHT22;3755;59.316;18.092;2022-08-21T16:17:04;22.90;93.90
7427;DHT22;3755;59.316;18.092;2022-08-21T16:19:32;23.00;93.90
7427;DHT22;3755;59.316;18.092;2022-08-21T16:21:59;23.10;93.40
7427;DHT22;3755;59.316;18.092;2022-08-21T16:24:27;23.20;93.20
7427;DHT22;3755;59.316;18.092;2022-08-21T16:26:55;23.30;92.80
7427;DHT22;3755;59.316;18.092;2022-08-21T16:29:22;23.00;91.80